sensor_id;sensor_type;location;lat;lon;timestamp;P1;durP1;ratioP1;P2;durP2;ratioP2
19179;SDS011;9722;48.754;8.868;2023-07-24T00:02:17;6.87;;;6.17;;
19179;SDS011;9722;48.754;8.868;2023-07-24T00:05:37;6.67;;;6.07;;
19179;SDS011;9722;48.754;8.868;2023-07-24T00:08:58;6.43;;;5.83;;
19179;SDS011;9722;48.754;8.868;2023-07-24T00:12:18;6.10;;;5.60;;
19179;SDS011;9722;48.754;8.868;2023-07-24T00:15:39;6.70;;;6.10;;
19179;SDS011;9722;48.754;8.868;2023-07-24T00:18:59;6.27;;;5.70;;
19179;SDS011;9722;48.754;8.868;2023-07-24T00:22:20;6.23;;;5.67;;
19179;SDS011;9722;48.754;8.868;2023-07-24T00:25:40;7.90;;;6.33;;
19179;SDS011;9722;48.754;8.868;2023-07-24T00:29:01;6.37;;;5.77;;
19179;SDS011;9722;48.754;8.868;2023-07-24T00:32:21;6.77;;;6.17;;
19179;SDS011;9722;48.754;8.868;2023-07-24T00:35:42;6.43;;;5.83;;
19179;SDS011;9722;48.754;8.868;2023-07-24T00:39:02;6.43;;;5.73;;
19179;SDS011;9722;48.754;8.868;2023-07-24T00:42:23;6.47;;;5.87;;
19179;SDS011;9722;48.754;8.868;2023-07-24T00:45:43;6.70;;;6.00;;
19179;SDS011;9722;48.754;8.868;2023-07-24T00:49:06;6.67;;;6.07;;
19179;SDS011;9722;48.754;8.868;2023-07-24T00:52:28;7.27;;;6.00;;
19179;SDS011;9722;48.754;8.868;2023-07-24T00:55:49;6.47;;;5.90;;
19179;SDS011;9722;48.754;8.868;2023-07-24T00:59:09;6.27;;;5.77;;
19179;SDS011;9722;48.754;8.868;2023-07-24T01:02:30;6.37;;;5.77;;
19179;SDS011;9722;48.754;8.868;2023-07-24T01:05:51;6.50;;;5.90;;
19179;SDS011;9722;48.754;8.868;2023-07-24T01:09:11;7.10;;;5.50;;
19179;SDS011;9722;48.754;8.868;2023-07-24T01:12:35;6.37;;;5.87;;
19179;SDS011;9722;48.754;8.868;2023-07-24T01:16:08;7.10;;;5.87;;
19179;SDS011;9722;48.754;8.868;2023-07-24T01:19:52;6.03;;;5.53;;
19179;SDS011;9722;48.754;8.868;2023-07-24T01:27:04;6.97;;;6.27;;
19179;SDS011;9722;48.754;8.868;2023-07-24T01:30:26;6.53;;;5.93;;
19179;SDS011;9722;48.754;8.868;2023-07-24T01:33:47;7.07;;;6.47;;
19179;SDS011;9722;48.754;8.868;2023-07-24T01:37:08;7.70;;;6.00;;
19179;SDS011;9722;48.754;8.868;2023-07-24T01:40:31;8.77;;;6.40;;
19179;SDS011;9722;48.754;8.868;2023-07-24T01:43:52;6.77;;;6.07;;
19179;SDS011;9722;48.754;8.868;2023-07-24T01:47:13;6.60;;;6.00;;
19179;SDS011;9722;48.754;8.868;2023-07-24T01:50:33;6.77;;;6.17;;
19179;SDS011;9722;48.754;8.868;2023-07-24T01:53:53;6.57;;;5.97;;
19179;SDS011;9722;48.754;8.868;2023-07-24T01:57:14;7.87;;;6.20;;
19179;SDS011;9722;48.754;8.868;2023-07-24T02:00:34;6.83;;;6.00;;
19179;SDS011;9722;48.754;8.868;2023-07-24T02:03:55;6.53;;;5.93;;
19179;SDS011;9722;48.754;8.868;2023-07-24T02:07:15;6.70;;;6.10;;
19179;SDS011;9722;48.754;8.868;2023-07-24T02:10:36;7.27;;;5.57;;
19179;SDS011;9722;48.754;8.868;2023-07-24T02:13:58;7.00;;;6.37;;
19179;SDS011;9722;48.754;8.868;2023-07-24T02:17:19;6.87;;;6.27;;
19179;SDS011;9722;48.754;8.868;2023-07-24T02:20:40;6.23;;;5.63;;
19179;SDS011;9722;48.754;8.868;2023-07-24T02:24:00;6.77;;;6.17;;
19179;SDS011;9722;48.754;8.868;2023-07-24T02:27:27;7.37;;;6.33;;
19179;SDS011;9722;48.754;8.868;2023-07-24T02:30:51;6.37;;;5.77;;
19179;SDS011;9722;48.754;8.868;2023-07-24T02:34:12;6.47;;;5.77;;
19179;SDS011;9722;48.754;8.868;2023-07-24T02:37:32;7.77;;;5.50;;
19179;SDS011;9722;48.754;8.868;2023-07-24T02:40:52;6.80;;;6.20;;
19179;SDS011;9722;48.754;8.868;2023-07-24T02:44:13;7.83;;;6.20;;
19179;SDS011;9722;48.754;8.868;2023-07-24T02:47:34;5.90;;;5.40;;
19179;SDS011;9722;48.754;8.868;2023-07-24T02:50:54;6.97;;;6.27;;
19179;SDS011;9722;48.754;8.868;2023-07-24T02:54:15;7.10;;;6.47;;
19179;SDS011;9722;48.754;8.868;2023-07-24T02:57:35;6.43;;;5.83;;
19179;SDS011;9722;48.754;8.868;2023-07-24T03:01:02;7.00;;;6.40;;
19179;SDS011;9722;48.754;8.868;2023-07-24T03:04:24;6.53;;;5.93;;
19179;SDS011;9722;48.754;8.868;2023-07-24T03:07:44;7.13;;;6.53;;
19179;SDS011;9722;48.754;8.868;2023-07-24T03:11:05;7.83;;;6.37;;
19179;SDS011;9722;48.754;8.868;2023-07-24T03:14:26;6.60;;;6.00;;
19179;SDS011;9722;48.754;8.868;2023-07-24T03:17:46;8.23;;;6.07;;
19179;SDS011;9722;48.754;8.868;2023-07-24T03:21:07;7.00;;;6.33;;
19179;SDS011;9722;48.754;8.868;2023-07-24T03:24:28;6.57;;;6.00;;
19179;SDS011;9722;48.754;8.868;2023-07-24T03:27:49;6.50;;;5.90;;
19179;SDS011;9722;48.754;8.868;2023-07-24T03:31:09;6.90;;;5.80;;
19179;SDS011;9722;48.754;8.868;2023-07-24T03:34:30;7.77;;;5.70;;
19179;SDS011;9722;48.754;8.868;2023-07-24T03:37:50;6.57;;;5.97;;
19179;SDS011;9722;48.754;8.868;2023-07-24T03:41:10;7.13;;;6.07;;
19179;SDS011;9722;48.754;8.868;2023-07-24T03:44:31;6.53;;;5.93;;
19179;SDS011;9722;48.754;8.868;2023-07-24T03:47:52;6.27;;;5.67;;
19179;SDS011;9722;48.754;8.868;2023-07-24T03:51:12;6.97;;;6.27;;
19179;SDS011;9722;48.754;8.868;2023-07-24T03:54:33;7.30;;;6.60;;
19179;SDS011;9722;48.754;8.868;2023-07-24T03:57:54;6.57;;;5.90;;
19179;SDS011;9722;48.754;8.868;2023-07-24T04:01:14;9.37;;;6.83;;
19179;SDS011;9722;48.754;8.868;2023-07-24T04:04:35;7.47;;;6.83;;
19179;SDS011;9722;48.754;8.868;2023-07-24T04:07:55;7.80;;;7.00;;
19179;SDS011;9722;48.754;8.868;2023-07-24T04:11:16;7.33;;;6.10;;
19179;SDS011;9722;48.754;8.868;2023-07-24T04:14:36;6.13;;;5.53;;
19179;SDS011;9722;48.754;8.868;2023-07-24T04:17:57;7.00;;;6.40;;
19179;SDS011;9722;48.754;8.868;2023-07-24T04:21:17;7.07;;;6.40;;
19179;SDS011;9722;48.754;8.868;2023-07-24T04:24:38;6.83;;;6.30;;
19179;SDS011;9722;48.754;8.868;2023-07-24T04:27:58;6.30;;;5.70;;
19179;SDS011;9722;48.754;8.868;2023-07-24T04:31:19;6.70;;;6.10;;
19179;SDS011;9722;48.754;8.868;2023-07-24T04:34:39;8.07;;;5.80;;
19179;SDS011;9722;48.754;8.868;2023-07-24T04:38:00;8.30;;;7.50;;
19179;SDS011;9722;48.754;8.868;2023-07-24T04:41:21;6.60;;;6.00;;
19179;SDS011;9722;48.754;8.868;2023-07-24T04:44:41;6.60;;;6.00;;
19179;SDS011;9722;48.754;8.868;2023-07-24T04:48:02;7.70;;;6.90;;
19179;SDS011;9722;48.754;8.868;2023-07-24T04:51:22;7.23;;;6.60;;
19179;SDS011;9722;48.754;8.868;2023-07-24T04:54:44;6.87;;;6.20;;
19179;SDS011;9722;48.754;8.868;2023-07-24T04:58:04;6.60;;;6.00;;
19179;SDS011;9722;48.754;8.868;2023-07-24T05:01:25;7.17;;;5.73;;
19179;SDS011;9722;48.754;8.868;2023-07-24T05:04:45;6.93;;;6.23;;
19179;SDS011;9722;48.754;8.868;2023-07-24T05:08:06;6.97;;;6.37;;
19179;SDS011;9722;48.754;8.868;2023-07-24T05:11:26;6.83;;;6.10;;
19179;SDS011;9722;48.754;8.868;2023-07-24T05:14:47;7.93;;;6.70;;
19179;SDS011;9722;48.754;8.868;2023-07-24T05:18:07;7.70;;;6.87;;
19179;SDS011;9722;48.754;8.868;2023-07-24T05:21:28;7.07;;;6.47;;
19179;SDS011;9722;48.754;8.868;2023-07-24T05:24:49;7.27;;;6.60;;
19179;SDS011;9722;48.754;8.868;2023-07-24T05:28:09;6.90;;;6.33;;
19179;SDS011;9722;48.754;8.868;2023-07-24T05:31:30;6.70;;;6.00;;
19179;SDS011;9722;48.754;8.868;2023-07-24T05:34:50;7.13;;;6.43;;
19179;SDS011;9722;48.754;8.868;2023-07-24T05:38:11;6.23;;;5.73;;
19179;SDS011;9722;48.754;8.868;2023-07-24T05:41:31;8.30;;;6.60;;
19179;SDS011;9722;48.754;8.868;2023-07-24T05:44:52;6.73;;;5.97;;
19179;SDS011;9722;48.754;8.868;2023-07-24T05:48:12;8.50;;;6.73;;
19179;SDS011;9722;48.754;8.868;2023-07-24T05:51:33;7.30;;;6.03;;
19179;SDS011;9722;48.754;8.868;2023-07-24T05:54:54;6.63;;;6.00;;
19179;SDS011;9722;48.754;8.868;2023-07-24T05:58:14;6.60;;;5.90;;
19179;SDS011;9722;48.754;8.868;2023-07-24T06:01:35;6.73;;;6.13;;
19179;SDS011;9722;48.754;8.868;2023-07-24T06:04:55;6.97;;;6.37;;
19179;SDS011;9722;48.754;8.868;2023-07-24T06:08:16;6.83;;;6.23;;
19179;SDS011;9722;48.754;8.868;2023-07-24T06:11:36;6.90;;;6.30;;
19179;SDS011;9722;48.754;8.868;2023-07-24T06:14:57;7.73;;;6.47;;
19179;SDS011;9722;48.754;8.868;2023-07-24T06:18:17;6.80;;;6.20;;
19179;SDS011;9722;48.754;8.868;2023-07-24T06:21:38;7.70;;;6.87;;
19179;SDS011;9722;48.754;8.868;2023-07-24T06:24:59;8.73;;;6.63;;
19179;SDS011;9722;48.754;8.868;2023-07-24T06:28:19;7.47;;;6.57;;
19179;SDS011;9722;48.754;8.868;2023-07-24T06:31:40;7.80;;;7.10;;
19179;SDS011;9722;48.754;8.868;2023-07-24T06:35:00;7.33;;;6.63;;
19179;SDS011;9722;48.754;8.868;2023-07-24T06:38:21;7.83;;;6.90;;
19179;SDS011;9722;48.754;8.868;2023-07-24T06:41:41;8.97;;;7.17;;
19179;SDS011;9722;48.754;8.868;2023-07-24T06:45:02;8.97;;;7.03;;
19179;SDS011;9722;48.754;8.868;2023-07-24T06:48:23;7.13;;;6.43;;
19179;SDS011;9722;48.754;8.868;2023-07-24T06:51:43;8.00;;;6.47;;
19179;SDS011;9722;48.754;8.868;2023-07-24T06:55:04;7.27;;;6.63;;
19179;SDS011;9722;48.754;8.868;2023-07-24T06:58:25;7.93;;;7.13;;
19179;SDS011;9722;48.754;8.868;2023-07-24T07:01:45;10.47;;;6.67;;
19179;SDS011;9722;48.754;8.868;2023-07-24T07:05:06;7.80;;;6.13;;
19179;SDS011;9722;48.754;8.868;2023-07-24T07:08:27;8.80;;;7.40;;
19179;SDS011;9722;48.754;8.868;2023-07-24T07:11:47;8.50;;;7.70;;
19179;SDS011;9722;48.754;8.868;2023-07-24T07:15:08;7.87;;;7.07;;
19179;SDS011;9722;48.754;8.868;2023-07-24T07:18:28;7.73;;;7.03;;
19179;SDS011;9722;48.754;8.868;2023-07-24T07:21:49;7.47;;;6.87;;
19179;SDS011;9722;48.754;8.868;2023-07-24T07:25:09;7.07;;;6.47;;
19179;SDS011;9722;48.754;8.868;2023-07-24T07:28:30;7.17;;;6.47;;
19179;SDS011;9722;48.754;8.868;2023-07-24T07:31:50;6.80;;;6.20;;
19179;SDS011;9722;48.754;8.868;2023-07-24T07:35:11;7.53;;;6.83;;
19179;SDS011;9722;48.754;8.868;2023-07-24T07:38:32;7.77;;;7.07;;
19179;SDS011;9722;48.754;8.868;2023-07-24T07:41:52;7.37;;;6.67;;
19179;SDS011;9722;48.754;8.868;2023-07-24T07:45:13;7.83;;;7.03;;
19179;SDS011;9722;48.754;8.868;2023-07-24T07:48:33;7.70;;;7.00;;
19179;SDS011;9722;48.754;8.868;2023-07-24T07:51:54;7.33;;;6.73;;
19179;SDS011;9722;48.754;8.868;2023-07-24T07:55:15;9.37;;;6.80;;
19179;SDS011;9722;48.754;8.868;2023-07-24T07:58:36;6.80;;;6.10;;
19179;SDS011;9722;48.754;8.868;2023-07-24T08:01:56;7.23;;;6.43;;
19179;SDS011;9722;48.754;8.868;2023-07-24T08:05:17;9.97;;;6.93;;
19179;SDS011;9722;48.754;8.868;2023-07-24T08:08:38;7.83;;;6.83;;
19179;SDS011;9722;48.754;8.868;2023-07-24T08:11:58;7.13;;;6.43;;
19179;SDS011;9722;48.754;8.868;2023-07-24T08:15:19;7.77;;;6.87;;
19179;SDS011;9722;48.754;8.868;2023-07-24T08:18:40;10.07;;;6.77;;
19179;SDS011;9722;48.754;8.868;2023-07-24T08:22:00;7.87;;;6.43;;
19179;SDS011;9722;48.754;8.868;2023-07-24T08:25:21;6.97;;;6.37;;
19179;SDS011;9722;48.754;8.868;2023-07-24T08:28:41;6.43;;;5.73;;
19179;SDS011;9722;48.754;8.868;2023-07-24T08:32:02;6.73;;;6.10;;
19179;SDS011;9722;48.754;8.868;2023-07-24T08:35:24;7.40;;;5.87;;
19179;SDS011;9722;48.754;8.868;2023-07-24T08:38:44;6.80;;;6.20;;
19179;SDS011;9722;48.754;8.868;2023-07-24T08:42:11;7.27;;;6.57;;
19179;SDS011;9722;48.754;8.868;2023-07-24T08:45:32;14.83;;;6.90;;
19179;SDS011;9722;48.754;8.868;2023-07-24T08:48:53;6.90;;;5.73;;
19179;SDS011;9722;48.754;8.868;2023-07-24T08:52:14;6.70;;;5.90;;
19179;SDS011;9722;48.754;8.868;2023-07-24T08:55:35;6.43;;;5.83;;
19179;SDS011;9722;48.754;8.868;2023-07-24T08:58:56;8.20;;;5.60;;
19179;SDS011;9722;48.754;8.868;2023-07-24T09:02:17;6.47;;;5.87;;
19179;SDS011;9722;48.754;8.868;2023-07-24T09:05:37;5.57;;;5.07;;
19179;SDS011;9722;48.754;8.868;2023-07-24T09:08:58;5.83;;;5.23;;
19179;SDS011;9722;48.754;8.868;2023-07-24T09:12:18;5.90;;;5.37;;
19179;SDS011;9722;48.754;8.868;2023-07-24T09:15:39;7.33;;;4.93;;
19179;SDS011;9722;48.754;8.868;2023-07-24T09:19:00;5.37;;;4.67;;
19179;SDS011;9722;48.754;8.868;2023-07-24T09:22:22;6.10;;;4.80;;
19179;SDS011;9722;48.754;8.868;2023-07-24T09:25:43;4.53;;;4.13;;
19179;SDS011;9722;48.754;8.868;2023-07-24T09:29:04;4.73;;;4.33;;
19179;SDS011;9722;48.754;8.868;2023-07-24T09:32:26;4.77;;;4.27;;
19179;SDS011;9722;48.754;8.868;2023-07-24T09:35:56;5.13;;;4.73;;
19179;SDS011;9722;48.754;8.868;2023-07-24T09:39:25;5.67;;;5.00;;
19179;SDS011;9722;48.754;8.868;2023-07-24T09:42:46;7.47;;;4.70;;
19179;SDS011;9722;48.754;8.868;2023-07-24T09:46:06;4.57;;;4.27;;
19179;SDS011;9722;48.754;8.868;2023-07-24T09:49:28;7.47;;;5.13;;
19179;SDS011;9722;48.754;8.868;2023-07-24T09:52:48;4.77;;;4.37;;
19179;SDS011;9722;48.754;8.868;2023-07-24T09:56:10;5.03;;;4.53;;
19179;SDS011;9722;48.754;8.868;2023-07-24T09:59:31;5.63;;;5.13;;
19179;SDS011;9722;48.754;8.868;2023-07-24T10:02:51;8.27;;;5.00;;
19179;SDS011;9722;48.754;8.868;2023-07-24T10:06:12;5.40;;;4.20;;
19179;SDS011;9722;48.754;8.868;2023-07-24T10:09:35;6.00;;;5.47;;
19179;SDS011;9722;48.754;8.868;2023-07-24T10:12:57;22.23;;;5.97;;
19179;SDS011;9722;48.754;8.868;2023-07-24T10:16:18;5.10;;;4.70;;
19179;SDS011;9722;48.754;8.868;2023-07-24T10:19:39;6.03;;;5.43;;
19179;SDS011;9722;48.754;8.868;2023-07-24T10:23:02;5.33;;;4.83;;
19179;SDS011;9722;48.754;8.868;2023-07-24T10:26:26;5.10;;;4.70;;
19179;SDS011;9722;48.754;8.868;2023-07-24T10:29:57;5.93;;;5.10;;
19179;SDS011;9722;48.754;8.868;2023-07-24T10:33:22;5.90;;;5.40;;
19179;SDS011;9722;48.754;8.868;2023-07-24T10:36:43;6.73;;;6.07;;
19179;SDS011;9722;48.754;8.868;2023-07-24T10:40:04;6.83;;;6.13;;
19179;SDS011;9722;48.754;8.868;2023-07-24T10:43:25;8.13;;;6.50;;
19179;SDS011;9722;48.754;8.868;2023-07-24T10:46:45;8.00;;;6.40;;
19179;SDS011;9722;48.754;8.868;2023-07-24T10:50:06;7.83;;;6.27;;
19179;SDS011;9722;48.754;8.868;2023-07-24T10:53:27;10.47;;;5.83;;
19179;SDS011;9722;48.754;8.868;2023-07-24T10:56:48;7.20;;;5.90;;
19179;SDS011;9722;48.754;8.868;2023-07-24T11:00:08;9.47;;;5.73;;
19179;SDS011;9722;48.754;8.868;2023-07-24T11:03:30;6.73;;;5.83;;
19179;SDS011;9722;48.754;8.868;2023-07-24T11:06:54;8.30;;;5.90;;
19179;SDS011;9722;48.754;8.868;2023-07-24T11:10:18;7.67;;;6.20;;
19179;SDS011;9722;48.754;8.868;2023-07-24T11:13:40;6.10;;;5.43;;
19179;SDS011;9722;48.754;8.868;2023-07-24T11:17:00;6.00;;;5.30;;
19179;SDS011;9722;48.754;8.868;2023-07-24T11:20:21;6.67;;;6.07;;
19179;SDS011;9722;48.754;8.868;2023-07-24T11:23:52;7.23;;;6.53;;
19179;SDS011;9722;48.754;8.868;2023-07-24T11:27:14;6.30;;;5.80;;
19179;SDS011;9722;48.754;8.868;2023-07-24T11:30:36;6.30;;;5.77;;
19179;SDS011;9722;48.754;8.868;2023-07-24T11:33:57;6.60;;;6.10;;
19179;SDS011;9722;48.754;8.868;2023-07-24T11:37:17;6.50;;;5.93;;
19179;SDS011;9722;48.754;8.868;2023-07-24T11:40:39;5.77;;;5.27;;
19179;SDS011;9722;48.754;8.868;2023-07-24T11:44:01;5.43;;;4.97;;
19179;SDS011;9722;48.754;8.868;2023-07-24T11:47:22;6.20;;;5.70;;
19179;SDS011;9722;48.754;8.868;2023-07-24T11:50:46;4.77;;;4.37;;
19179;SDS011;9722;48.754;8.868;2023-07-24T11:54:14;4.77;;;4.30;;
19179;SDS011;9722;48.754;8.868;2023-07-24T11:57:37;4.87;;;4.43;;
19179;SDS011;9722;48.754;8.868;2023-07-24T12:00:57;5.40;;;4.90;;
19179;SDS011;9722;48.754;8.868;2023-07-24T12:04:18;5.20;;;4.70;;
19179;SDS011;9722;48.754;8.868;2023-07-24T12:07:42;5.33;;;4.93;;
19179;SDS011;9722;48.754;8.868;2023-07-24T12:11:15;5.77;;;4.80;;
19179;SDS011;9722;48.754;8.868;2023-07-24T12:14:37;4.50;;;4.10;;
19179;SDS011;9722;48.754;8.868;2023-07-24T12:17:57;5.80;;;5.30;;
19179;SDS011;9722;48.754;8.868;2023-07-24T12:21:18;4.60;;;4.23;;
19179;SDS011;9722;48.754;8.868;2023-07-24T12:24:38;5.20;;;4.70;;
19179;SDS011;9722;48.754;8.868;2023-07-24T12:27:59;5.80;;;5.30;;
19179;SDS011;9722;48.754;8.868;2023-07-24T12:31:20;5.23;;;4.60;;
19179;SDS011;9722;48.754;8.868;2023-07-24T12:34:40;4.90;;;4.50;;
19179;SDS011;9722;48.754;8.868;2023-07-24T12:38:01;5.03;;;4.63;;
19179;SDS011;9722;48.754;8.868;2023-07-24T12:41:21;5.10;;;4.70;;
19179;SDS011;9722;48.754;8.868;2023-07-24T12:44:42;5.13;;;4.67;;
19179;SDS011;9722;48.754;8.868;2023-07-24T12:48:03;4.90;;;4.43;;
19179;SDS011;9722;48.754;8.868;2023-07-24T12:51:24;5.00;;;4.60;;
19179;SDS011;9722;48.754;8.868;2023-07-24T12:54:45;4.37;;;4.00;;
19179;SDS011;9722;48.754;8.868;2023-07-24T12:58:05;5.13;;;4.47;;
19179;SDS011;9722;48.754;8.868;2023-07-24T13:01:26;4.50;;;4.10;;
19179;SDS011;9722;48.754;8.868;2023-07-24T13:04:48;4.53;;;4.17;;
19179;SDS011;9722;48.754;8.868;2023-07-24T13:08:09;4.37;;;3.97;;
19179;SDS011;9722;48.754;8.868;2023-07-24T13:11:29;4.57;;;4.17;;
19179;SDS011;9722;48.754;8.868;2023-07-24T13:14:50;4.03;;;3.73;;
19179;SDS011;9722;48.754;8.868;2023-07-24T13:18:10;4.43;;;4.13;;
19179;SDS011;9722;48.754;8.868;2023-07-24T13:21:33;4.53;;;4.13;;
19179;SDS011;9722;48.754;8.868;2023-07-24T13:24:54;4.23;;;3.80;;
19179;SDS011;9722;48.754;8.868;2023-07-24T13:28:14;4.40;;;4.10;;
19179;SDS011;9722;48.754;8.868;2023-07-24T13:31:35;4.13;;;3.83;;
19179;SDS011;9722;48.754;8.868;2023-07-24T13:34:55;4.00;;;3.70;;
19179;SDS011;9722;48.754;8.868;2023-07-24T13:38:16;4.47;;;4.10;;
19179;SDS011;9722;48.754;8.868;2023-07-24T13:41:37;4.47;;;4.10;;
19179;SDS011;9722;48.754;8.868;2023-07-24T13:44:58;4.20;;;3.87;;
19179;SDS011;9722;48.754;8.868;2023-07-24T13:48:18;3.97;;;3.67;;
19179;SDS011;9722;48.754;8.868;2023-07-24T13:51:39;4.43;;;4.13;;
19179;SDS011;9722;48.754;8.868;2023-07-24T13:54:59;5.27;;;4.87;;
19179;SDS011;9722;48.754;8.868;2023-07-24T13:58:20;3.80;;;3.50;;
19179;SDS011;9722;48.754;8.868;2023-07-24T14:01:41;4.37;;;3.97;;
19179;SDS011;9722;48.754;8.868;2023-07-24T14:05:01;3.97;;;3.67;;
19179;SDS011;9722;48.754;8.868;2023-07-24T14:08:22;4.50;;;4.10;;
19179;SDS011;9722;48.754;8.868;2023-07-24T14:11:42;4.23;;;3.93;;
19179;SDS011;9722;48.754;8.868;2023-07-24T14:15:03;3.90;;;3.60;;
19179;SDS011;9722;48.754;8.868;2023-07-24T14:18:24;4.00;;;3.70;;
19179;SDS011;9722;48.754;8.868;2023-07-24T14:21:44;3.83;;;3.53;;
19179;SDS011;9722;48.754;8.868;2023-07-24T14:25:05;4.13;;;3.73;;
19179;SDS011;9722;48.754;8.868;2023-07-24T14:28:26;3.73;;;3.43;;
19179;SDS011;9722;48.754;8.868;2023-07-24T14:31:46;4.73;;;3.83;;
19179;SDS011;9722;48.754;8.868;2023-07-24T14:35:07;3.57;;;3.27;;
19179;SDS011;9722;48.754;8.868;2023-07-24T14:38:27;3.70;;;3.43;;
19179;SDS011;9722;48.754;8.868;2023-07-24T14:41:48;3.53;;;3.23;;
19179;SDS011;9722;48.754;8.868;2023-07-24T14:45:09;3.80;;;3.50;;
19179;SDS011;9722;48.754;8.868;2023-07-24T14:48:29;3.40;;;3.10;;
19179;SDS011;9722;48.754;8.868;2023-07-24T14:51:50;5.63;;;3.50;;
19179;SDS011;9722;48.754;8.868;2023-07-24T14:55:11;3.67;;;3.37;;
19179;SDS011;9722;48.754;8.868;2023-07-24T14:58:31;3.03;;;2.83;;
19179;SDS011;9722;48.754;8.868;2023-07-24T15:01:52;3.60;;;3.30;;
19179;SDS011;9722;48.754;8.868;2023-07-24T15:05:12;3.33;;;3.00;;
19179;SDS011;9722;48.754;8.868;2023-07-24T15:08:33;3.00;;;2.60;;
19179;SDS011;9722;48.754;8.868;2023-07-24T15:11:55;3.20;;;3.00;;
19179;SDS011;9722;48.754;8.868;2023-07-24T15:15:16;2.80;;;2.60;;
19179;SDS011;9722;48.754;8.868;2023-07-24T15:18:37;2.97;;;2.77;;
19179;SDS011;9722;48.754;8.868;2023-07-24T15:21:57;3.63;;;2.90;;
19179;SDS011;9722;48.754;8.868;2023-07-24T15:25:18;2.90;;;2.70;;
19179;SDS011;9722;48.754;8.868;2023-07-24T15:28:39;3.30;;;3.07;;
19179;SDS011;9722;48.754;8.868;2023-07-24T15:32:00;3.17;;;2.97;;
19179;SDS011;9722;48.754;8.868;2023-07-24T15:35:20;3.30;;;3.00;;
19179;SDS011;9722;48.754;8.868;2023-07-24T15:38:41;3.23;;;3.03;;
19179;SDS011;9722;48.754;8.868;2023-07-24T15:42:01;3.57;;;3.27;;
19179;SDS011;9722;48.754;8.868;2023-07-24T15:45:22;3.70;;;3.40;;
19179;SDS011;9722;48.754;8.868;2023-07-24T15:48:43;3.60;;;3.00;;
19179;SDS011;9722;48.754;8.868;2023-07-24T15:52:03;3.57;;;3.30;;
19179;SDS011;9722;48.754;8.868;2023-07-24T15:55:25;3.43;;;3.13;;
19179;SDS011;9722;48.754;8.868;2023-07-24T15:58:46;3.20;;;3.00;;
19179;SDS011;9722;48.754;8.868;2023-07-24T16:02:08;3.73;;;3.43;;
19179;SDS011;9722;48.754;8.868;2023-07-24T16:05:29;3.77;;;3.47;;
19179;SDS011;9722;48.754;8.868;2023-07-24T16:08:49;3.43;;;3.03;;
19179;SDS011;9722;48.754;8.868;2023-07-24T16:12:10;3.80;;;3.37;;
19179;SDS011;9722;48.754;8.868;2023-07-24T16:15:30;3.30;;;2.87;;
19179;SDS011;9722;48.754;8.868;2023-07-24T16:22:40;3.73;;;3.43;;
19179;SDS011;9722;48.754;8.868;2023-07-24T16:26:01;3.00;;;2.80;;
19179;SDS011;9722;48.754;8.868;2023-07-24T16:29:21;3.07;;;2.87;;
19179;SDS011;9722;48.754;8.868;2023-07-24T16:32:42;2.97;;;2.77;;
19179;SDS011;9722;48.754;8.868;2023-07-24T16:36:04;3.87;;;3.57;;
19179;SDS011;9722;48.754;8.868;2023-07-24T16:39:24;6.37;;;4.47;;
19179;SDS011;9722;48.754;8.868;2023-07-24T16:42:46;3.20;;;2.23;;
19179;SDS011;9722;48.754;8.868;2023-07-24T16:46:06;2.80;;;2.50;;
19179;SDS011;9722;48.754;8.868;2023-07-24T16:49:27;3.00;;;2.70;;
19179;SDS011;9722;48.754;8.868;2023-07-24T16:52:47;3.17;;;2.40;;
19179;SDS011;9722;48.754;8.868;2023-07-24T16:56:08;2.60;;;1.83;;
19179;SDS011;9722;48.754;8.868;2023-07-24T16:59:29;1.73;;;1.00;;
19179;SDS011;9722;48.754;8.868;2023-07-24T17:02:51;1.10;;;1.00;;
19179;SDS011;9722;48.754;8.868;2023-07-24T17:06:11;1.17;;;1.00;;
19179;SDS011;9722;48.754;8.868;2023-07-24T17:09:32;1.40;;;1.20;;
19179;SDS011;9722;48.754;8.868;2023-07-24T17:12:53;1.77;;;1.40;;
19179;SDS011;9722;48.754;8.868;2023-07-24T17:16:14;1.40;;;1.30;;
19179;SDS011;9722;48.754;8.868;2023-07-24T17:19:35;1.70;;;1.30;;
19179;SDS011;9722;48.754;8.868;2023-07-24T17:22:56;1.60;;;1.10;;
19179;SDS011;9722;48.754;8.868;2023-07-24T17:26:16;1.53;;;1.27;;
19179;SDS011;9722;48.754;8.868;2023-07-24T17:29:37;1.50;;;1.40;;
19179;SDS011;9722;48.754;8.868;2023-07-24T17:32:58;1.67;;;1.30;;
19179;SDS011;9722;48.754;8.868;2023-07-24T17:36:18;1.40;;;1.30;;
19179;SDS011;9722;48.754;8.868;2023-07-24T17:39:39;1.50;;;1.40;;
19179;SDS011;9722;48.754;8.868;2023-07-24T17:42:59;1.40;;;1.30;;
19179;SDS011;9722;48.754;8.868;2023-07-24T17:46:20;1.10;;;1.10;;
19179;SDS011;9722;48.754;8.868;2023-07-24T17:49:41;2.60;;;1.40;;
19179;SDS011;9722;48.754;8.868;2023-07-24T17:53:01;1.40;;;1.30;;
19179;SDS011;9722;48.754;8.868;2023-07-24T17:56:22;1.43;;;1.33;;
19179;SDS011;9722;48.754;8.868;2023-07-24T17:59:42;1.20;;;1.10;;
19179;SDS011;9722;48.754;8.868;2023-07-24T18:03:03;1.53;;;1.43;;
19179;SDS011;9722;48.754;8.868;2023-07-24T18:06:23;1.57;;;1.47;;
19179;SDS011;9722;48.754;8.868;2023-07-24T18:09:44;2.90;;;1.13;;
19179;SDS011;9722;48.754;8.868;2023-07-24T18:13:04;1.20;;;1.10;;
19179;SDS011;9722;48.754;8.868;2023-07-24T18:16:25;1.50;;;1.20;;
19179;SDS011;9722;48.754;8.868;2023-07-24T18:19:45;1.47;;;1.30;;
19179;SDS011;9722;48.754;8.868;2023-07-24T18:23:06;1.13;;;1.03;;
19179;SDS011;9722;48.754;8.868;2023-07-24T18:26:26;1.90;;;1.37;;
19179;SDS011;9722;48.754;8.868;2023-07-24T18:29:47;1.30;;;1.20;;
19179;SDS011;9722;48.754;8.868;2023-07-24T18:33:07;1.37;;;1.27;;
19179;SDS011;9722;48.754;8.868;2023-07-24T18:36:28;1.03;;;1.03;;
19179;SDS011;9722;48.754;8.868;2023-07-24T18:39:48;1.30;;;1.20;;
19179;SDS011;9722;48.754;8.868;2023-07-24T18:43:09;1.60;;;1.37;;
19179;SDS011;9722;48.754;8.868;2023-07-24T18:46:29;1.40;;;1.30;;
19179;SDS011;9722;48.754;8.868;2023-07-24T18:49:50;3.07;;;1.47;;
19179;SDS011;9722;48.754;8.868;2023-07-24T18:53:10;2.03;;;1.30;;
19179;SDS011;9722;48.754;8.868;2023-07-24T18:56:31;1.50;;;1.40;;
19179;SDS011;9722;48.754;8.868;2023-07-24T18:59:51;1.40;;;1.30;;
19179;SDS011;9722;48.754;8.868;2023-07-24T19:03:12;1.97;;;1.73;;
19179;SDS011;9722;48.754;8.868;2023-07-24T19:06:33;1.83;;;1.30;;
19179;SDS011;9722;48.754;8.868;2023-07-24T19:09:55;2.97;;;1.50;;
19179;SDS011;9722;48.754;8.868;2023-07-24T19:13:15;1.50;;;1.40;;
19179;SDS011;9722;48.754;8.868;2023-07-24T19:16:35;1.80;;;1.23;;
19179;SDS011;9722;48.754;8.868;2023-07-24T19:19:56;1.50;;;1.40;;
19179;SDS011;9722;48.754;8.868;2023-07-24T19:23:17;1.40;;;1.30;;
19179;SDS011;9722;48.754;8.868;2023-07-24T19:26:37;1.40;;;1.30;;
19179;SDS011;9722;48.754;8.868;2023-07-24T19:29:58;1.20;;;1.20;;
19179;SDS011;9722;48.754;8.868;2023-07-24T19:33:22;1.40;;;1.30;;
19179;SDS011;9722;48.754;8.868;2023-07-24T19:36:43;1.47;;;1.20;;
19179;SDS011;9722;48.754;8.868;2023-07-24T19:40:04;1.73;;;1.30;;
19179;SDS011;9722;48.754;8.868;2023-07-24T19:43:25;1.10;;;1.10;;
19179;SDS011;9722;48.754;8.868;2023-07-24T19:46:46;1.53;;;1.43;;
19179;SDS011;9722;48.754;8.868;2023-07-24T19:50:06;1.30;;;1.20;;
19179;SDS011;9722;48.754;8.868;2023-07-24T19:53:27;1.30;;;1.20;;
19179;SDS011;9722;48.754;8.868;2023-07-24T19:56:47;1.50;;;1.40;;
19179;SDS011;9722;48.754;8.868;2023-07-24T20:00:08;1.40;;;1.30;;
19179;SDS011;9722;48.754;8.868;2023-07-24T20:03:29;1.30;;;1.07;;
19179;SDS011;9722;48.754;8.868;2023-07-24T20:06:50;1.60;;;1.50;;
19179;SDS011;9722;48.754;8.868;2023-07-24T20:10:10;1.60;;;1.50;;
19179;SDS011;9722;48.754;8.868;2023-07-24T20:13:31;1.80;;;1.50;;
19179;SDS011;9722;48.754;8.868;2023-07-24T20:16:52;1.90;;;1.20;;
19179;SDS011;9722;48.754;8.868;2023-07-24T20:20:12;2.63;;;1.27;;
19179;SDS011;9722;48.754;8.868;2023-07-24T20:23:33;2.43;;;1.60;;
19179;SDS011;9722;48.754;8.868;2023-07-24T20:26:54;2.37;;;1.70;;
19179;SDS011;9722;48.754;8.868;2023-07-24T20:30:14;1.50;;;1.40;;
19179;SDS011;9722;48.754;8.868;2023-07-24T20:33:35;1.97;;;1.70;;
19179;SDS011;9722;48.754;8.868;2023-07-24T20:36:55;1.70;;;1.50;;